createdAt,value
2022-10-03T00:02:51.646Z,10.0
2022-10-03T00:07:57.810Z,11.0
2022-10-03T00:13:04.024Z,12.0
2022-10-03T00:18:10.226Z,9.5
2022-10-03T00:23:16.430Z,9.0
2022-10-03T00:28:22.658Z,11.0
2022-10-03T00:33:28.846Z,10.5
2022-10-03T00:38:35.071Z,11.0
2022-10-03T00:43:41.260Z,10.0
2022-10-03T00:48:47.478Z,9.0
2022-10-03T00:53:53.691Z,12.0
2022-10-03T00:58:59.884Z,9.0
2022-10-03T01:04:05.123Z,10.0
2022-10-03T01:09:11.326Z,7.0
2022-10-03T01:14:16.565Z,9.0
2022-10-03T01:19:22.782Z,11.0
2022-10-03T01:24:28.977Z,11.0
2022-10-03T01:29:35.196Z,10.0
2022-10-03T01:34:41.406Z,12.0
2022-10-03T01:39:47.609Z,11.0
2022-10-03T01:44:53.813Z,8.0
2022-10-03T01:50:00.027Z,8.0
2022-10-03T01:55:06.238Z,12.0
2022-10-03T02:00:12.450Z,11.0
2022-10-03T02:05:18.655Z,10.0
2022-10-03T02:10:24.854Z,9.0
2022-10-03T02:15:31.073Z,9.0
2022-10-03T02:20:37.275Z,9.0
2022-10-03T02:25:43.479Z,9.0
2022-10-03T02:30:49.683Z,10.0
2022-10-03T02:35:55.896Z,11.0
2022-10-03T02:41:02.102Z,11.0
2022-10-03T02:46:08.428Z,13.0
2022-10-03T02:51:14.521Z,10.0
2022-10-03T02:56:20.729Z,10.0
2022-10-03T03:01:26.033Z,10.0
2022-10-03T03:06:32.170Z,10.0
2022-10-03T03:11:37.682Z,10.0
2022-10-03T03:16:43.680Z,10.0
2022-10-03T03:21:49.822Z,9.0
2022-10-03T03:26:56.029Z,10.0
2022-10-03T03:32:02.339Z,10.0
2022-10-03T03:37:08.450Z,10.0
2022-10-03T03:42:14.655Z,8.0
2022-10-03T03:47:20.858Z,11.0
2022-10-03T03:52:27.079Z,10.0
2022-10-03T03:57:33.282Z,10.0
2022-10-03T04:02:39.604Z,9.0
2022-10-03T04:07:45.692Z,12.0
2022-10-03T04:12:51.901Z,8.0
2022-10-03T04:17:58.108Z,10.0
2022-10-03T04:23:04.314Z,9.0
2022-10-03T04:28:10.596Z,7.0
2022-10-03T04:33:16.753Z,8.0
2022-10-03T04:38:22.944Z,9.0
2022-10-03T04:43:29.157Z,11.0
2022-10-03T04:48:35.357Z,11.0
2022-10-03T04:53:41.567Z,12.0
2022-10-03T04:58:46.800Z,7.0
2022-10-03T05:03:53.008Z,10.5
2022-10-03T05:08:59.216Z,10.0
2022-10-03T05:14:04.460Z,9.0
2022-10-03T05:19:10.662Z,9.0
2022-10-03T05:24:16.878Z,7.5
2022-10-03T05:29:23.070Z,9.0
2022-10-03T05:34:29.310Z,8.0
2022-10-03T05:39:35.492Z,7.5
2022-10-03T05:44:41.700Z,9.0
2022-10-03T05:49:47.909Z,8.0
2022-10-03T05:54:54.120Z,7.0
2022-10-03T06:00:00.335Z,8.0
2022-10-03T06:05:06.543Z,9.0
2022-10-03T06:10:12.747Z,9.0
2022-10-03T06:15:18.950Z,9.0
2022-10-03T06:20:25.155Z,9.0
2022-10-03T06:25:31.360Z,11.0
2022-10-03T06:30:37.615Z,12.0
2022-10-03T06:35:43.782Z,11.5
2022-10-03T06:40:50.012Z,10.0
2022-10-03T06:45:56.251Z,11.0
2022-10-03T06:51:02.414Z,10.0
2022-10-03T06:56:08.614Z,11.0
2022-10-03T07:01:13.925Z,10.0
2022-10-03T07:06:20.063Z,12.0
2022-10-03T07:11:26.290Z,10.5
2022-10-03T07:16:32.563Z,12.0
2022-10-03T07:21:39.057Z,11.0
2022-10-03T07:26:44.894Z,11.0
2022-10-03T07:31:51.091Z,10.0
2022-10-03T07:36:57.299Z,11.0
2022-10-03T07:47:09.952Z,12.0
2022-10-03T07:52:15.945Z,10.0
2022-10-03T07:57:22.128Z,12.0
2022-10-03T08:02:28.395Z,12.0
2022-10-03T08:12:40.758Z,14.0
2022-10-03T08:17:46.962Z,10.0
2022-10-03T08:22:53.178Z,10.0
2022-10-03T08:27:59.439Z,11.5
2022-10-03T08:33:05.591Z,11.0
2022-10-03T08:38:11.795Z,9.0
2022-10-03T08:43:18.011Z,10.0
2022-10-03T08:48:24.219Z,8.0
2022-10-03T08:53:29.466Z,10.0
2022-10-03T08:58:35.678Z,9.0
2022-10-03T09:03:43.666Z,8.0
2022-10-03T09:08:47.145Z,9.0
2022-10-03T09:13:52.389Z,8.0
2022-10-03T09:18:58.590Z,7.0
2022-10-03T09:24:04.810Z,9.0
2022-10-03T09:29:11.031Z,8.0
2022-10-03T09:34:17.226Z,7.0
2022-10-03T09:39:23.439Z,7.0
2022-10-03T09:44:29.642Z,7.0
2022-10-03T09:49:35.853Z,7.0
2022-10-03T09:54:42.066Z,7.5
2022-10-03T09:59:48.280Z,5.0
2022-10-03T10:04:56.069Z,5.0
2022-10-03T10:10:00.696Z,6.0
2022-10-03T10:15:06.893Z,5.5
2022-10-03T10:20:13.105Z,6.0
2022-10-03T10:25:19.316Z,5.5
2022-10-03T10:30:25.526Z,7.0
2022-10-03T10:35:31.732Z,6.0
2022-10-03T10:40:37.939Z,6.0
2022-10-03T10:45:44.153Z,6.0
2022-10-03T10:50:50.374Z,5.0
2022-10-03T10:55:56.576Z,5.0
2022-10-03T11:01:01.861Z,4.0
2022-10-03T11:06:08.010Z,4.0
2022-10-03T11:11:14.211Z,6.0
2022-10-03T11:16:20.468Z,7.0
2022-10-03T11:21:25.664Z,5.0
2022-10-03T11:26:31.878Z,5.0
2022-10-03T11:31:38.133Z,6.0
2022-10-03T11:36:44.640Z,6.0
2022-10-03T11:41:50.498Z,7.0
2022-10-03T11:46:56.714Z,4.0
2022-10-03T11:52:02.914Z,6.0
2022-10-03T11:57:09.120Z,5.0
2022-10-03T12:02:15.420Z,5.0
2022-10-03T12:07:21.541Z,6.0
2022-10-03T12:12:27.757Z,5.0
2022-10-03T12:17:33.961Z,6.0
2022-10-03T12:22:40.165Z,6.0
2022-10-03T12:27:46.372Z,5.0
2022-10-03T12:32:52.582Z,5.0
2022-10-03T12:37:58.797Z,4.0
2022-10-03T12:43:05.000Z,3.0
2022-10-03T12:48:11.209Z,3.0
2022-10-03T12:53:17.413Z,3.0
2022-10-03T12:58:23.656Z,5.0
2022-10-03T13:03:29.835Z,6.0
2022-10-03T13:08:35.066Z,4.0
2022-10-03T13:13:40.307Z,4.0
2022-10-03T13:18:45.546Z,3.0
2022-10-03T13:23:51.742Z,4.0
2022-10-03T13:28:57.962Z,5.0
2022-10-03T13:34:04.183Z,5.0
2022-10-03T13:39:10.370Z,4.0
2022-10-03T13:44:16.579Z,4.0
2022-10-03T13:49:22.788Z,4.0
2022-10-03T13:54:28.996Z,5.0
2022-10-03T13:59:35.236Z,3.0
2022-10-03T14:04:41.414Z,4.0
2022-10-03T14:09:47.627Z,3.0
2022-10-03T14:14:53.827Z,6.0
2022-10-03T14:20:00.036Z,5.0
2022-10-03T14:25:06.241Z,4.0
2022-10-03T14:30:12.462Z,5.5
2022-10-03T14:35:18.680Z,4.0
2022-10-03T14:40:24.868Z,6.0
2022-10-03T14:45:31.188Z,4.0
2022-10-03T14:50:37.283Z,4.0
2022-10-03T14:55:43.498Z,4.0
2022-10-03T15:00:49.713Z,4.0
2022-10-03T15:05:54.937Z,5.0
2022-10-03T15:11:01.153Z,5.0
2022-10-03T15:16:06.433Z,4.0
2022-10-03T15:21:12.600Z,4.0
2022-10-03T15:26:18.804Z,5.0
2022-10-03T15:31:25.044Z,4.0
2022-10-03T15:36:31.218Z,4.0
2022-10-03T15:41:37.815Z,5.0
2022-10-03T15:46:43.655Z,6.0
2022-10-03T15:51:49.851Z,5.0
2022-10-03T15:56:56.054Z,5.0
2022-10-03T16:02:02.333Z,7.0
2022-10-03T16:07:08.472Z,4.0
2022-10-03T16:12:14.688Z,5.0
2022-10-03T16:17:20.892Z,4.5
2022-10-03T16:22:27.096Z,5.0
2022-10-03T16:27:33.299Z,4.0
2022-10-03T16:32:39.520Z,5.0
2022-10-03T16:37:45.724Z,5.0
2022-10-03T16:42:51.933Z,4.0
2022-10-03T16:47:58.147Z,6.0
2022-10-03T16:53:04.347Z,4.0
2022-10-03T16:58:10.557Z,5.0
2022-10-03T17:03:15.805Z,9.0
2022-10-03T17:08:40.833Z,6.0
2022-10-03T17:13:27.234Z,6.0
2022-10-03T17:18:33.445Z,6.0
2022-10-03T17:23:39.658Z,4.0
2022-10-03T17:28:45.864Z,5.0
2022-10-03T17:33:52.090Z,7.0
2022-10-03T17:38:58.312Z,7.0
2022-10-03T17:44:04.487Z,6.0
2022-10-03T17:49:10.697Z,6.0
2022-10-03T17:54:16.958Z,8.0
2022-10-03T17:59:23.112Z,7.0
2022-10-03T18:04:29.324Z,6.0
2022-10-03T18:09:35.532Z,10.0
2022-10-03T18:14:41.738Z,9.0
2022-10-03T18:19:47.948Z,6.0
2022-10-03T18:24:54.169Z,7.0
2022-10-03T18:30:00.370Z,9.0
2022-10-03T18:35:06.572Z,8.0
2022-10-03T18:40:12.793Z,8.0
2022-10-03T18:45:18.985Z,7.0
2022-10-03T18:50:25.194Z,7.0
2022-10-03T18:55:31.403Z,8.0
2022-10-03T19:00:40.632Z,8.0
2022-10-03T19:05:42.847Z,7.0
2022-10-03T19:10:48.089Z,9.0
2022-10-03T19:15:54.291Z,7.0
2022-10-03T19:21:00.502Z,7.0
2022-10-03T19:26:06.731Z,8.0
2022-10-03T19:31:12.939Z,8.0
2022-10-03T19:36:19.124Z,7.0
2022-10-03T19:41:25.360Z,8.0
2022-10-03T19:46:31.572Z,7.0
2022-10-03T19:51:38.031Z,7.0
2022-10-03T19:56:43.999Z,6.0
2022-10-03T20:01:50.311Z,7.0
2022-10-03T20:06:56.447Z,8.5
2022-10-03T20:12:02.640Z,8.0
2022-10-03T20:17:08.851Z,9.0
2022-10-03T20:22:15.075Z,10.0
2022-10-03T20:27:21.281Z,6.0
2022-10-03T20:32:27.506Z,7.0
2022-10-03T20:37:36.596Z,5.0
2022-10-03T20:42:39.922Z,7.5
2022-10-03T20:47:46.132Z,7.0
2022-10-03T20:52:52.340Z,6.5
2022-10-03T20:57:57.577Z,7.0
2022-10-03T21:03:03.787Z,9.0
2022-10-03T21:08:09.998Z,6.0
2022-10-03T21:13:15.241Z,6.0
2022-10-03T21:18:21.450Z,7.0
2022-10-03T21:23:27.662Z,6.0
2022-10-03T21:28:33.951Z,5.5
2022-10-03T21:33:40.083Z,6.0
2022-10-03T21:38:46.323Z,6.0
2022-10-03T21:43:52.502Z,7.5
2022-10-03T21:48:58.708Z,7.0
2022-10-03T21:54:04.936Z,8.0
2022-10-03T21:59:11.140Z,7.0
2022-10-03T22:04:17.349Z,8.0
2022-10-03T22:09:23.561Z,7.0
2022-10-03T22:14:29.776Z,7.0
2022-10-03T22:19:35.972Z,7.0
2022-10-03T22:24:42.187Z,8.0
2022-10-03T22:29:48.391Z,7.0
2022-10-03T22:34:54.605Z,6.0
2022-10-03T22:40:00.810Z,6.0
2022-10-03T22:45:07.056Z,7.0
2022-10-03T22:50:13.241Z,6.0
2022-10-03T22:55:19.442Z,5.0
2022-10-03T23:00:24.681Z,6.0
2022-10-03T23:05:30.889Z,5.0
2022-10-03T23:10:36.122Z,5.0
2022-10-03T23:15:42.443Z,6.0
2022-10-03T23:20:48.537Z,7.0
2022-10-03T23:25:54.743Z,7.0
2022-10-03T23:31:00.989Z,7.0
2022-10-03T23:36:07.167Z,7.5
2022-10-03T23:41:13.379Z,7.0
2022-10-03T23:46:19.658Z,9.0
2022-10-03T23:51:25.782Z,9.0
2022-10-03T23:56:31.990Z,11.0
